createdAt,value
2023-03-18T00:00:49.008Z,57.99
2023-03-18T00:03:16.024Z,58.70
2023-03-18T00:05:42.670Z,59.35
2023-03-18T00:08:09.696Z,58.61
2023-03-18T00:10:36.320Z,59.26
2023-03-18T00:13:05.981Z,58.60
2023-03-18T00:15:33.039Z,58.66
2023-03-18T00:17:59.882Z,58.73
2023-03-18T00:20:38.795Z,58.22
2023-03-18T00:23:11.484Z,58.88
2023-03-18T00:25:38.912Z,58.96
2023-03-18T00:28:07.177Z,58.44
2023-03-18T00:30:37.184Z,59.95
2023-03-18T00:33:05.508Z,58.70
2023-03-18T00:35:32.414Z,58.63
2023-03-18T00:38:00.466Z,57.74
2023-03-18T00:40:43.144Z,57.96
2023-03-18T00:43:11.250Z,57.98
2023-03-18T00:45:39.535Z,58.00
2023-03-18T00:48:07.644Z,57.72
2023-03-18T00:50:36.103Z,57.57
2023-03-18T00:53:03.024Z,57.21
2023-03-18T00:55:29.672Z,56.80
2023-03-18T00:57:57.358Z,57.15
2023-03-18T01:00:26.171Z,57.44
2023-03-18T01:02:56.374Z,57.56
2023-03-18T01:05:23.060Z,57.18
2023-03-18T01:07:49.815Z,57.04
2023-03-18T01:10:17.156Z,56.88
2023-03-18T01:12:46.703Z,58.16
2023-03-18T01:15:18.893Z,58.64
2023-03-18T01:17:46.644Z,58.51
2023-03-18T01:20:17.091Z,58.42
2023-03-18T01:22:44.825Z,57.98
2023-03-18T01:25:13.143Z,57.40
2023-03-18T01:27:40.655Z,58.54
2023-03-18T01:30:09.187Z,58.64
2023-03-18T01:32:36.583Z,58.14
2023-03-18T01:35:03.724Z,59.15
2023-03-18T01:37:31.520Z,58.44
2023-03-18T01:39:58.424Z,57.83
2023-03-18T01:42:25.085Z,58.15
2023-03-18T01:45:19.855Z,58.26
2023-03-18T01:47:46.681Z,57.93
2023-03-18T01:50:23.113Z,58.87
2023-03-18T01:53:04.436Z,57.91
2023-03-18T01:55:32.272Z,58.24
2023-03-18T01:58:01.375Z,57.11
2023-03-18T02:00:28.578Z,58.22
2023-03-18T02:02:55.191Z,58.46
2023-03-18T02:07:51.643Z,57.55
2023-03-18T02:10:21.542Z,57.96
2023-03-18T02:12:54.647Z,57.36
2023-03-18T02:15:23.283Z,56.58
2023-03-18T02:18:09.212Z,57.74
2023-03-18T02:20:48.829Z,56.89
2023-03-18T02:23:43.287Z,57.70
2023-03-18T02:26:34.963Z,57.99
2023-03-18T02:29:04.880Z,58.79
2023-03-18T02:31:34.862Z,57.64
2023-03-18T02:34:01.911Z,57.01
2023-03-18T02:36:32.010Z,56.99
2023-03-18T02:39:00.371Z,57.20
2023-03-18T02:41:31.788Z,57.94
2023-03-18T02:43:58.792Z,57.85
2023-03-18T02:46:36.453Z,57.99
2023-03-18T02:49:05.154Z,58.04
2023-03-18T02:51:31.762Z,58.46
2023-03-18T02:54:08.521Z,58.03
2023-03-18T02:56:35.192Z,58.28
2023-03-18T02:59:01.936Z,58.41
2023-03-18T03:01:29.011Z,58.35
2023-03-18T03:03:56.399Z,58.37
2023-03-18T03:06:23.355Z,58.38
2023-03-18T03:08:50.240Z,59.23
2023-03-18T03:11:17.125Z,58.04
2023-03-18T03:13:45.906Z,59.07
2023-03-18T03:16:14.174Z,59.23
2023-03-18T03:18:40.838Z,59.73
2023-03-18T03:21:08.746Z,60.64
2023-03-18T03:23:35.914Z,60.68
2023-03-18T03:26:03.009Z,60.02
2023-03-18T03:28:29.774Z,60.58
2023-03-18T03:30:57.029Z,61.15
2023-03-18T03:33:23.837Z,60.97
2023-03-18T03:35:50.583Z,59.31
2023-03-18T03:38:17.539Z,59.34
2023-03-18T03:40:46.788Z,60.21
2023-03-18T03:43:14.577Z,61.17
2023-03-18T03:45:42.117Z,61.85
2023-03-18T03:48:09.074Z,61.42
2023-03-18T03:50:37.112Z,62.00
2023-03-18T03:53:05.552Z,60.95
2023-03-18T03:55:33.733Z,60.00
2023-03-18T03:58:01.173Z,61.09
2023-03-18T04:00:28.467Z,62.28
2023-03-18T04:02:55.152Z,61.56
2023-03-18T04:05:24.523Z,60.91
2023-03-18T04:07:52.553Z,62.47
2023-03-18T04:10:20.670Z,61.79
2023-03-18T04:12:47.540Z,62.01
2023-03-18T04:15:16.434Z,62.55
2023-03-18T04:17:43.099Z,63.72
2023-03-18T04:20:10.808Z,62.50
2023-03-18T04:22:37.780Z,62.65
2023-03-18T04:25:05.228Z,63.08
2023-03-18T04:27:33.697Z,62.89
2023-03-18T04:30:00.785Z,62.44
2023-03-18T04:32:27.852Z,62.80
2023-03-18T04:34:54.876Z,61.53
2023-03-18T04:37:21.737Z,61.85
2023-03-18T04:39:48.427Z,61.74
2023-03-18T04:42:15.060Z,62.75
2023-03-18T04:44:41.818Z,62.86
2023-03-18T04:47:08.574Z,62.53
2023-03-18T04:49:35.612Z,62.87
2023-03-18T04:52:02.293Z,62.32
2023-03-18T04:54:28.976Z,62.90
2023-03-18T04:56:55.727Z,63.00
2023-03-18T04:59:22.365Z,62.82
2023-03-18T05:01:49.041Z,62.56
2023-03-18T05:04:15.764Z,64.53
2023-03-18T05:06:42.636Z,64.73
2023-03-18T05:09:09.698Z,64.42
2023-03-18T05:11:36.485Z,64.87
2023-03-18T05:14:03.221Z,64.83
2023-03-18T05:16:30.303Z,65.20
2023-03-18T05:18:57.087Z,66.00
2023-03-18T05:21:23.979Z,66.36
2023-03-18T05:23:51.005Z,66.99
2023-03-18T05:26:17.860Z,66.67
2023-03-18T05:28:44.953Z,66.93
2023-03-18T05:31:11.609Z,66.64
2023-03-18T05:33:38.275Z,65.91
2023-03-18T05:36:05.244Z,66.09
2023-03-18T05:38:32.200Z,66.68
2023-03-18T05:40:58.871Z,67.16
2023-03-18T05:43:26.303Z,66.78
2023-03-18T05:45:52.991Z,67.29
2023-03-18T05:48:19.931Z,66.99
2023-03-18T05:50:46.930Z,67.07
2023-03-18T05:53:16.182Z,67.24
2023-03-18T05:55:43.232Z,69.18
2023-03-18T05:58:09.845Z,70.09
2023-03-18T06:00:37.661Z,70.53
2023-03-18T06:03:04.717Z,69.29
2023-03-18T06:05:31.912Z,68.16
2023-03-18T06:07:59.404Z,68.42
2023-03-18T06:10:26.487Z,68.34
2023-03-18T06:12:55.349Z,68.26
2023-03-18T06:15:22.796Z,68.87
2023-03-18T06:17:49.482Z,69.46
2023-03-18T06:20:18.693Z,68.71
2023-03-18T06:22:49.526Z,68.41
2023-03-18T06:25:18.422Z,68.22
2023-03-18T06:27:45.084Z,68.50
2023-03-18T06:30:13.312Z,69.65
2023-03-18T06:32:40.536Z,68.73
2023-03-18T06:35:08.158Z,67.96
2023-03-18T06:37:34.819Z,68.77
2023-03-18T06:40:01.755Z,67.78
2023-03-18T06:42:28.360Z,66.24
2023-03-18T06:44:55.045Z,66.17
2023-03-18T06:47:22.765Z,67.16
2023-03-18T06:49:50.829Z,67.10
2023-03-18T06:52:19.048Z,65.09
2023-03-18T06:54:46.214Z,66.44
2023-03-18T06:57:13.516Z,67.24
2023-03-18T06:59:40.771Z,64.81
2023-03-18T07:02:08.662Z,64.47
2023-03-18T07:04:35.590Z,65.51
2023-03-18T07:07:02.297Z,62.85
2023-03-18T07:09:28.986Z,63.22
2023-03-18T07:11:55.626Z,63.45
2023-03-18T07:14:22.813Z,63.54
2023-03-18T07:16:50.554Z,62.81
2023-03-18T07:19:18.807Z,61.95
2023-03-18T07:21:46.347Z,60.65
2023-03-18T07:24:13.280Z,60.55
2023-03-18T07:26:39.976Z,60.65
2023-03-18T07:29:06.603Z,60.34
2023-03-18T07:31:33.812Z,60.95
2023-03-18T07:34:00.529Z,60.60
2023-03-18T07:36:28.125Z,58.10
2023-03-18T07:38:56.828Z,59.19
2023-03-18T07:41:23.535Z,58.20
2023-03-18T07:43:50.168Z,57.39
2023-03-18T07:46:17.077Z,58.20
2023-03-18T07:48:43.667Z,58.37
2023-03-18T07:51:10.283Z,59.14
2023-03-18T07:53:37.995Z,59.14
2023-03-18T07:56:04.774Z,59.71
2023-03-18T07:58:31.355Z,58.81
2023-03-18T08:00:59.851Z,58.30
2023-03-18T08:03:26.610Z,59.43
2023-03-18T08:05:53.220Z,57.76
2023-03-18T08:08:19.892Z,57.38
2023-03-18T08:10:46.794Z,57.28
2023-03-18T08:13:13.435Z,56.79
2023-03-18T08:15:41.167Z,56.19
2023-03-18T08:18:09.406Z,56.49
2023-03-18T08:20:36.180Z,57.72
2023-03-18T08:23:04.392Z,58.00
2023-03-18T08:25:31.533Z,59.27
2023-03-18T08:27:58.405Z,57.31
2023-03-18T08:30:28.621Z,57.27
2023-03-18T08:32:56.368Z,57.73
2023-03-18T08:35:23.534Z,57.12
2023-03-18T08:37:51.599Z,56.14
2023-03-18T08:40:19.580Z,55.07
2023-03-18T08:42:46.918Z,55.05
2023-03-18T08:45:13.515Z,55.78
2023-03-18T08:47:41.437Z,56.28
2023-03-18T08:50:09.074Z,55.72
2023-03-18T08:52:37.977Z,56.72
2023-03-18T08:55:06.030Z,54.57
2023-03-18T08:57:33.087Z,56.29
2023-03-18T08:59:59.960Z,55.34
2023-03-18T09:02:27.583Z,56.57
2023-03-18T09:04:55.088Z,57.02
2023-03-18T09:07:21.786Z,57.22
2023-03-18T09:09:48.442Z,56.28
2023-03-18T09:12:15.255Z,56.04
2023-03-18T09:14:43.578Z,56.33
2023-03-18T09:17:10.428Z,56.97
2023-03-18T09:19:37.436Z,56.14
2023-03-18T09:22:04.605Z,54.45
2023-03-18T09:24:31.700Z,53.18
2023-03-18T09:26:59.988Z,54.92
2023-03-18T09:29:29.933Z,53.63
2023-03-18T09:31:56.625Z,53.78
2023-03-18T09:34:23.652Z,53.18
2023-03-18T09:36:51.671Z,52.33
2023-03-18T09:39:19.737Z,52.65
2023-03-18T09:42:45.076Z,51.95
2023-03-18T09:45:22.987Z,52.30
2023-03-18T09:48:07.484Z,51.71
2023-03-18T09:50:38.231Z,52.87
2023-03-18T09:53:14.154Z,52.27
2023-03-18T09:55:47.047Z,51.92
2023-03-18T09:58:46.463Z,52.00
2023-03-18T10:01:13.787Z,52.04
2023-03-18T10:03:48.164Z,51.98
2023-03-18T10:06:20.658Z,50.75
2023-03-18T10:08:56.500Z,51.51
2023-03-18T10:11:31.121Z,53.22
2023-03-18T10:14:27.807Z,53.20
2023-03-18T10:16:58.394Z,53.91
2023-03-18T10:19:25.335Z,53.22
2023-03-18T10:22:23.441Z,53.80
2023-03-18T10:24:53.045Z,53.82
2023-03-18T10:27:59.183Z,54.71
2023-03-18T10:30:55.015Z,54.79
2023-03-18T10:33:46.494Z,56.88
2023-03-18T10:36:19.845Z,56.94
2023-03-18T10:38:51.800Z,58.57
2023-03-18T10:41:36.023Z,57.75
2023-03-18T10:44:06.243Z,55.60
2023-03-18T10:46:34.559Z,54.85
2023-03-18T10:49:16.329Z,54.89
2023-03-18T10:51:55.666Z,55.20
2023-03-18T10:54:44.154Z,55.62
2023-03-18T10:57:32.806Z,52.89
2023-03-18T10:59:59.793Z,54.79
2023-03-18T11:02:33.320Z,53.30
2023-03-18T11:05:06.806Z,55.25
2023-03-18T11:07:33.622Z,54.45
2023-03-18T11:10:28.895Z,53.59
2023-03-18T11:13:00.242Z,54.83
2023-03-18T11:15:27.024Z,54.20
2023-03-18T11:17:58.673Z,53.38
2023-03-18T11:20:47.684Z,54.95
2023-03-18T11:23:48.724Z,53.96
2023-03-18T11:26:24.488Z,53.51
2023-03-18T11:28:56.320Z,55.58
2023-03-18T11:31:23.130Z,53.79
2023-03-18T11:33:49.914Z,55.22
2023-03-18T11:36:20.606Z,56.41
2023-03-18T11:39:03.939Z,56.06
2023-03-18T11:41:30.814Z,55.50
2023-03-18T11:44:06.565Z,55.68
2023-03-18T11:46:47.028Z,56.02
2023-03-18T11:49:16.550Z,54.32
2023-03-18T11:52:02.449Z,55.91
2023-03-18T11:54:28.922Z,56.42
2023-03-18T11:57:14.212Z,55.05
2023-03-18T12:00:02.445Z,55.22
2023-03-18T12:02:47.850Z,54.62
2023-03-18T12:05:24.054Z,55.48
2023-03-18T12:08:00.124Z,56.04
2023-03-18T12:10:35.976Z,54.49
2023-03-18T12:13:21.985Z,53.97
2023-03-18T12:16:04.035Z,54.61
2023-03-18T12:18:58.762Z,54.63
2023-03-18T12:21:43.869Z,55.50
2023-03-18T12:24:30.355Z,56.05
2023-03-18T12:27:29.868Z,56.00
2023-03-18T12:30:09.905Z,55.64
2023-03-18T12:32:42.106Z,55.53
2023-03-18T12:35:19.563Z,54.24
2023-03-18T12:38:11.682Z,54.79
2023-03-18T12:40:49.725Z,55.83
2023-03-18T12:43:35.113Z,56.90
2023-03-18T12:46:06.204Z,55.65
2023-03-18T12:48:44.360Z,55.56
2023-03-18T12:51:18.267Z,56.75
2023-03-18T12:53:49.123Z,55.50
2023-03-18T12:56:23.358Z,55.70
2023-03-18T12:59:03.888Z,54.82
2023-03-18T13:01:34.935Z,53.66
2023-03-18T13:04:13.593Z,55.37
2023-03-18T13:06:46.380Z,55.08
2023-03-18T13:09:22.130Z,55.13
2023-03-18T13:12:04.701Z,54.78
2023-03-18T13:14:48.380Z,56.99
2023-03-18T13:17:21.846Z,55.63
2023-03-18T13:19:49.054Z,56.14
2023-03-18T13:22:35.976Z,54.67
2023-03-18T13:25:24.076Z,54.40
2023-03-18T13:28:12.242Z,53.74
2023-03-18T13:31:06.306Z,54.09
2023-03-18T13:34:05.316Z,51.98
2023-03-18T13:37:04.701Z,53.76
2023-03-18T13:39:55.225Z,53.29
2023-03-18T13:42:36.225Z,54.00
2023-03-18T13:45:29.366Z,53.88
2023-03-18T13:48:02.181Z,53.79
2023-03-18T13:50:39.980Z,53.84
2023-03-18T13:53:21.004Z,55.74
2023-03-18T13:55:55.203Z,54.36
2023-03-18T13:58:52.721Z,54.74
2023-03-18T14:01:33.303Z,55.45
2023-03-18T14:04:02.349Z,55.99
2023-03-18T14:06:35.228Z,57.20
2023-03-18T14:09:23.060Z,57.51
2023-03-18T14:11:52.880Z,57.59
2023-03-18T14:14:48.579Z,56.54
2023-03-18T14:17:17.779Z,56.31
2023-03-18T14:19:45.547Z,55.50
2023-03-18T14:22:23.019Z,53.40
2023-03-18T14:25:11.077Z,53.61
2023-03-18T14:27:51.300Z,54.00
2023-03-18T14:30:30.230Z,53.98
2023-03-18T14:32:59.773Z,53.57
2023-03-18T14:35:47.753Z,54.28
2023-03-18T14:38:24.944Z,53.48
2023-03-18T14:40:54.342Z,53.78
2023-03-18T14:43:29.366Z,53.60
2023-03-18T14:46:02.882Z,53.40
2023-03-18T14:48:31.897Z,53.59
2023-03-18T14:51:13.384Z,54.03
2023-03-18T14:53:47.540Z,53.83
2023-03-18T14:56:23.722Z,55.74
2023-03-18T14:58:53.906Z,54.03
2023-03-18T15:01:41.160Z,54.75
2023-03-18T15:04:14.380Z,55.17
2023-03-18T15:06:41.930Z,55.90
2023-03-18T15:09:10.536Z,56.12
2023-03-18T15:11:41.392Z,56.57
2023-03-18T15:14:30.083Z,56.68
2023-03-18T15:16:59.849Z,57.59
2023-03-18T15:19:28.466Z,58.06
2023-03-18T15:21:59.144Z,58.07
2023-03-18T15:24:26.764Z,57.85
2023-03-18T15:27:14.670Z,58.32
2023-03-18T15:29:58.309Z,59.60
2023-03-18T15:32:34.151Z,60.26
2023-03-18T15:35:15.421Z,60.34
2023-03-18T15:37:47.093Z,60.06
2023-03-18T15:40:45.958Z,61.04
2023-03-18T15:43:19.055Z,61.04
2023-03-18T15:45:51.811Z,62.14
2023-03-18T15:48:32.026Z,62.54
2023-03-18T15:51:00.905Z,63.08
2023-03-18T15:53:30.338Z,63.71
2023-03-18T15:55:58.531Z,64.48
2023-03-18T15:58:35.717Z,65.28
2023-03-18T16:01:02.645Z,66.73
2023-03-18T16:03:32.361Z,67.40
2023-03-18T16:08:59.089Z,69.26
2023-03-18T16:11:26.130Z,69.77
2023-03-18T16:13:52.854Z,70.44
2023-03-18T16:16:28.304Z,70.48
2023-03-18T16:18:57.924Z,71.71
2023-03-18T16:21:24.589Z,73.60
2023-03-18T16:23:51.456Z,74.70
2023-03-18T16:26:18.474Z,75.21
2023-03-18T16:28:47.180Z,75.14
2023-03-18T16:31:15.319Z,76.03
2023-03-18T16:33:42.694Z,76.82
2023-03-18T16:36:23.005Z,77.22
2023-03-18T16:38:50.549Z,78.49
2023-03-18T16:41:18.061Z,79.83
2023-03-18T16:43:45.876Z,80.95
2023-03-18T16:46:13.921Z,81.43
2023-03-18T16:48:40.919Z,82.17
2023-03-18T16:51:07.651Z,82.72
2023-03-18T16:53:34.402Z,83.76
2023-03-18T16:56:16.039Z,84.87
2023-03-18T16:58:42.937Z,85.23
2023-03-18T17:01:16.447Z,84.79
2023-03-18T17:03:43.255Z,84.95
2023-03-18T17:06:10.099Z,85.05
2023-03-18T17:08:36.841Z,84.99
2023-03-18T17:11:04.128Z,85.03
2023-03-18T17:13:33.714Z,86.17
2023-03-18T17:16:01.727Z,87.17
2023-03-18T17:18:28.507Z,88.06
2023-03-18T17:20:55.338Z,88.53
2023-03-18T17:23:25.372Z,89.16
2023-03-18T17:25:59.313Z,90.15
2023-03-18T17:28:30.524Z,90.35
2023-03-18T17:30:57.244Z,90.77
2023-03-18T17:33:24.270Z,90.77
2023-03-18T17:35:52.218Z,90.90
2023-03-18T17:38:19.379Z,91.18
2023-03-18T17:40:48.064Z,91.86
2023-03-18T17:43:26.492Z,92.43
2023-03-18T17:45:53.929Z,92.71
2023-03-18T17:48:28.833Z,93.24
2023-03-18T17:50:57.903Z,94.21
2023-03-18T17:53:25.873Z,95.28
2023-03-18T17:55:54.652Z,96.04
2023-03-18T17:58:23.503Z,96.98
2023-03-18T18:00:51.728Z,97.84
2023-03-18T18:03:27.120Z,99.06
2023-03-18T18:05:55.132Z,99.79
2023-03-18T18:08:23.222Z,100.00
2023-03-18T18:10:49.925Z,100.00
2023-03-18T18:13:19.471Z,100.00
2023-03-18T18:15:46.719Z,100.00
2023-03-18T18:18:24.902Z,100.00
2023-03-18T18:20:54.772Z,100.00
2023-03-18T18:23:24.972Z,100.00
2023-03-18T18:25:52.374Z,100.00
2023-03-18T18:28:21.763Z,100.00
2023-03-18T18:30:49.658Z,100.00
2023-03-18T18:33:16.848Z,100.00
2023-03-18T18:35:44.073Z,100.00
2023-03-18T18:38:12.424Z,100.00
2023-03-18T18:40:39.694Z,100.00
2023-03-18T18:43:06.468Z,100.00
2023-03-18T18:45:34.156Z,100.00
2023-03-18T18:48:01.954Z,100.00
2023-03-18T18:50:32.468Z,100.00
2023-03-18T18:53:00.472Z,100.00
2023-03-18T18:55:27.161Z,100.00
2023-03-18T18:57:53.938Z,100.00
2023-03-18T19:00:23.106Z,100.00
2023-03-18T19:02:51.661Z,100.00
2023-03-18T19:05:18.654Z,100.00
2023-03-18T19:07:46.451Z,100.00
2023-03-18T19:10:14.966Z,100.00
2023-03-18T19:12:42.671Z,100.00
2023-03-18T19:15:09.907Z,100.00
2023-03-18T19:17:37.223Z,100.00
2023-03-18T19:20:05.502Z,100.00
2023-03-18T19:22:32.158Z,100.00
2023-03-18T19:24:58.774Z,100.00
2023-03-18T19:27:28.778Z,100.00
2023-03-18T19:29:58.220Z,100.00
2023-03-18T19:32:25.600Z,100.00
2023-03-18T19:34:53.216Z,100.00
2023-03-18T19:37:28.437Z,100.00
2023-03-18T19:39:56.067Z,100.00
2023-03-18T19:42:23.002Z,100.00
2023-03-18T19:44:49.761Z,100.00
2023-03-18T19:47:23.592Z,100.00
2023-03-18T19:49:50.266Z,100.00
2023-03-18T19:52:21.032Z,100.00
2023-03-18T19:54:48.680Z,100.00
2023-03-18T19:57:21.329Z,100.00
2023-03-18T19:59:48.904Z,100.00
2023-03-18T20:02:23.532Z,100.00
2023-03-18T20:04:51.636Z,100.00
2023-03-18T20:07:23.497Z,100.00
2023-03-18T20:09:50.571Z,100.00
2023-03-18T20:12:24.194Z,100.00
2023-03-18T20:14:51.830Z,100.00
2023-03-18T20:17:27.569Z,100.00
2023-03-18T20:19:54.179Z,100.00
2023-03-18T20:22:23.241Z,100.00
2023-03-18T20:24:50.056Z,100.00
2023-03-18T20:27:17.321Z,100.00
2023-03-18T20:29:46.781Z,100.00
2023-03-18T20:32:13.500Z,100.00
2023-03-18T20:34:41.584Z,100.00
2023-03-18T20:37:20.793Z,100.00
2023-03-18T20:39:48.910Z,100.00
2023-03-18T20:42:16.928Z,100.00
2023-03-18T20:44:45.245Z,100.00
2023-03-18T20:47:13.387Z,100.00
2023-03-18T20:49:44.537Z,100.00
2023-03-18T20:52:28.946Z,100.00
2023-03-18T20:54:56.815Z,100.00
2023-03-18T20:57:24.257Z,100.00
2023-03-18T20:59:51.657Z,100.00
2023-03-18T21:02:31.922Z,100.00
2023-03-18T21:05:00.026Z,100.00
2023-03-18T21:07:29.280Z,100.00
2023-03-18T21:09:56.218Z,100.00
2023-03-18T21:12:23.072Z,100.00
2023-03-18T21:14:50.610Z,100.00
2023-03-18T21:17:25.083Z,100.00
2023-03-18T21:19:53.688Z,100.00
2023-03-18T21:22:22.321Z,100.00
2023-03-18T21:24:49.833Z,100.00
2023-03-18T21:27:21.676Z,100.00
2023-03-18T21:29:51.148Z,100.00
2023-03-18T21:32:25.842Z,100.00
2023-03-18T21:34:52.871Z,100.00
2023-03-18T21:37:21.365Z,100.00
2023-03-18T21:39:48.992Z,100.00
2023-03-18T21:42:22.336Z,100.00
2023-03-18T21:44:49.034Z,100.00
2023-03-18T21:47:17.955Z,100.00
2023-03-18T21:49:44.877Z,100.00
2023-03-18T21:52:35.099Z,100.00
2023-03-18T21:55:03.096Z,100.00
2023-03-18T21:57:30.417Z,100.00
2023-03-18T21:59:57.106Z,100.00
2023-03-18T22:02:34.933Z,100.00
2023-03-18T22:05:03.984Z,100.00
2023-03-18T22:07:31.546Z,100.00
2023-03-18T22:09:58.672Z,100.00
2023-03-18T22:12:32.036Z,100.00
2023-03-18T22:14:59.394Z,100.00
2023-03-18T22:17:33.725Z,100.00
2023-03-18T22:20:02.097Z,100.00
2023-03-18T22:22:36.735Z,100.00
2023-03-18T22:25:03.988Z,100.00
2023-03-18T22:27:31.300Z,100.00
2023-03-18T22:30:00.210Z,100.00
2023-03-18T22:32:39.520Z,100.00
2023-03-18T22:35:12.940Z,100.00
2023-03-18T22:37:42.812Z,100.00
2023-03-18T22:40:15.925Z,100.00
2023-03-18T22:42:42.560Z,100.00
2023-03-18T22:45:28.581Z,100.00
2023-03-18T22:48:00.267Z,100.00
2023-03-18T22:50:28.414Z,100.00
2023-03-18T22:53:00.364Z,100.00
2023-03-18T22:55:29.326Z,100.00
2023-03-18T22:57:56.250Z,100.00
2023-03-18T23:00:40.828Z,100.00
2023-03-18T23:03:14.740Z,100.00
2023-03-18T23:05:41.400Z,100.00
2023-03-18T23:08:08.001Z,100.00
2023-03-18T23:10:41.012Z,100.00
2023-03-18T23:13:15.453Z,100.00
2023-03-18T23:15:43.583Z,100.00
2023-03-18T23:18:18.069Z,100.00
2023-03-18T23:20:46.845Z,100.00
2023-03-18T23:23:14.526Z,100.00
2023-03-18T23:25:42.317Z,100.00
2023-03-18T23:28:09.276Z,100.00
2023-03-18T23:30:37.768Z,100.00
2023-03-18T23:33:05.101Z,100.00
2023-03-18T23:35:32.703Z,100.00
2023-03-18T23:37:59.583Z,100.00
2023-03-18T23:40:26.380Z,100.00
2023-03-18T23:42:53.390Z,100.00
2023-03-18T23:45:21.983Z,100.00
2023-03-18T23:47:48.632Z,100.00
2023-03-18T23:50:15.682Z,100.00
2023-03-18T23:52:43.001Z,100.00
2023-03-18T23:55:32.734Z,100.00
2023-03-18T23:58:00.770Z,100.00
